createdAt,value
2017-11-28T00:00:04.000Z,6.30
2017-11-28T00:02:30.888Z,6.20
2017-11-28T00:04:57.705Z,6.20
2017-11-28T00:07:24.132Z,6.20
2017-11-28T00:09:50.570Z,6.20
2017-11-28T00:12:17.054Z,6.20
2017-11-28T00:14:43.441Z,6.20
2017-11-28T00:17:09.821Z,6.20
2017-11-28T00:19:36.293Z,6.30
2017-11-28T00:22:02.700Z,6.30
2017-11-28T00:24:29.154Z,6.30
2017-11-28T00:26:55.589Z,6.30
2017-11-28T00:29:22.721Z,6.20
2017-11-28T00:31:49.889Z,6.20
2017-11-28T00:34:16.321Z,6.20
2017-11-28T00:36:42.721Z,6.30
2017-11-28T00:39:09.120Z,6.30
2017-11-28T00:41:36.321Z,6.20
2017-11-28T00:44:02.781Z,6.20
2017-11-28T00:46:29.189Z,6.30
2017-11-28T00:48:55.635Z,6.30
2017-11-28T00:51:22.862Z,6.30
2017-11-28T00:53:49.290Z,6.30
2017-11-28T00:56:15.715Z,6.30
2017-11-28T00:58:42.213Z,6.30
2017-11-28T01:01:08.546Z,6.30
2017-11-28T01:03:35.701Z,6.30
2017-11-28T01:06:02.130Z,6.30
2017-11-28T01:08:28.559Z,6.20
2017-11-28T01:10:55.022Z,6.20
2017-11-28T01:13:21.425Z,6.20
2017-11-28T01:15:47.786Z,6.20
2017-11-28T01:18:14.177Z,6.10
2017-11-28T01:20:40.535Z,6.10
2017-11-28T01:23:06.880Z,6.10
2017-11-28T01:25:33.956Z,6.10
2017-11-28T01:28:01.004Z,6.00
2017-11-28T01:30:27.325Z,6.00
2017-11-28T01:32:53.672Z,6.00
2017-11-28T01:35:19.973Z,6.00
2017-11-28T01:37:46.309Z,6.00
2017-11-28T01:40:12.657Z,6.00
2017-11-28T01:42:39.000Z,6.00
2017-11-28T01:45:05.337Z,6.00
2017-11-28T01:47:31.681Z,6.00
2017-11-28T01:49:58.017Z,5.90
2017-11-28T01:52:24.372Z,5.90
2017-11-28T01:54:50.748Z,5.90
2017-11-28T01:57:17.067Z,5.90
2017-11-28T01:59:43.378Z,5.90
2017-11-28T02:02:09.721Z,5.90
2017-11-28T02:04:37.173Z,5.90
2017-11-28T02:07:04.237Z,5.90
2017-11-28T02:09:30.568Z,5.90
2017-11-28T02:11:57.653Z,5.90
2017-11-28T02:14:24.696Z,5.90
2017-11-28T02:16:51.113Z,5.90
2017-11-28T02:19:17.413Z,5.90
2017-11-28T02:21:43.773Z,5.90
2017-11-28T02:24:10.140Z,5.90
2017-11-28T02:26:36.460Z,5.90
2017-11-28T02:29:02.804Z,5.80
2017-11-28T02:31:29.186Z,5.80
2017-11-28T02:33:55.498Z,5.80
2017-11-28T02:36:21.842Z,5.80
2017-11-28T02:38:48.189Z,5.80
2017-11-28T02:41:14.513Z,5.80
2017-11-28T02:43:41.628Z,5.80
2017-11-28T02:46:09.064Z,5.80
2017-11-28T02:48:35.366Z,5.80
2017-11-28T02:51:03.468Z,5.80
2017-11-28T02:53:29.822Z,5.80
2017-11-28T02:55:57.950Z,5.80
2017-11-28T02:58:27.720Z,5.80
2017-11-28T03:03:55.673Z,5.80
2017-11-28T03:06:21.995Z,5.70
2017-11-28T03:08:48.297Z,5.80
2017-11-28T03:11:14.624Z,5.80
2017-11-28T03:13:43.828Z,5.80
2017-11-28T03:16:14.897Z,5.70
2017-11-28T03:18:46.916Z,5.70
2017-11-28T03:21:13.256Z,5.70
2017-11-28T03:23:46.448Z,5.70
2017-11-28T03:26:22.730Z,5.70
2017-11-28T03:31:39.941Z,5.70
2017-11-28T03:34:07.945Z,5.70
2017-11-28T03:36:34.265Z,5.70
2017-11-28T03:39:01.349Z,5.70
2017-11-28T03:41:28.736Z,5.60
2017-11-28T03:43:55.073Z,5.70
2017-11-28T03:46:26.094Z,5.70
2017-11-28T03:48:54.449Z,5.70
2017-11-28T03:51:20.780Z,5.60
2017-11-28T03:53:47.101Z,5.60
2017-11-28T03:56:13.433Z,5.60
2017-11-28T03:58:39.772Z,5.60
2017-11-28T04:01:06.125Z,5.60
2017-11-28T04:03:32.432Z,5.60
2017-11-28T04:05:59.533Z,5.60
2017-11-28T04:08:25.841Z,5.60
2017-11-28T04:10:52.168Z,5.50
2017-11-28T04:13:19.228Z,5.60
2017-11-28T04:15:46.293Z,5.60
2017-11-28T04:18:12.629Z,5.60
2017-11-28T04:20:39.689Z,5.50
2017-11-28T04:23:06.740Z,5.50
2017-11-28T04:25:33.857Z,5.60
2017-11-28T04:28:00.161Z,5.60
2017-11-28T04:30:27.197Z,5.50
2017-11-28T04:32:54.332Z,5.50
2017-11-28T04:35:20.633Z,5.50
2017-11-28T04:37:46.944Z,5.50
2017-11-28T04:40:14.017Z,5.50
2017-11-28T04:42:41.088Z,5.50
2017-11-28T04:45:08.150Z,5.50
2017-11-28T04:47:34.504Z,5.50
2017-11-28T04:50:01.813Z,5.50
2017-11-28T04:52:28.156Z,5.50
2017-11-28T04:54:54.496Z,5.50
2017-11-28T04:57:21.024Z,5.50
2017-11-28T04:59:47.324Z,5.50
2017-11-28T05:02:13.662Z,5.50
2017-11-28T05:04:40.745Z,5.50
2017-11-28T05:07:07.085Z,5.50
2017-11-28T05:09:33.436Z,5.50
2017-11-28T05:12:00.748Z,5.50
2017-11-28T05:14:27.056Z,5.50
2017-11-28T05:16:53.434Z,5.50
2017-11-28T05:19:19.740Z,5.50
2017-11-28T05:21:46.067Z,5.50
2017-11-28T05:24:12.416Z,5.40
2017-11-28T05:26:38.716Z,5.40
2017-11-28T05:29:05.760Z,5.40
2017-11-28T05:31:32.853Z,5.40
2017-11-28T05:33:59.148Z,5.40
2017-11-28T05:36:25.488Z,5.40
2017-11-28T05:38:51.832Z,5.40
2017-11-28T05:41:18.188Z,5.40
2017-11-28T05:43:44.527Z,5.40
2017-11-28T05:46:11.608Z,5.40
2017-11-28T05:48:37.921Z,5.40
2017-11-28T05:51:04.228Z,5.30
2017-11-28T05:53:33.228Z,5.30
2017-11-28T05:55:59.529Z,5.40
2017-11-28T05:58:25.928Z,5.30
2017-11-28T06:00:53.139Z,5.30
2017-11-28T06:03:19.452Z,5.30
2017-11-28T06:05:45.764Z,5.30
2017-11-28T06:08:17.076Z,5.30
2017-11-28T06:10:43.395Z,5.30
2017-11-28T06:13:09.697Z,5.30
2017-11-28T06:15:37.113Z,5.30
2017-11-28T06:18:03.489Z,5.30
2017-11-28T06:20:30.552Z,5.30
2017-11-28T06:22:56.897Z,5.30
2017-11-28T06:25:24.297Z,5.30
2017-11-28T06:27:50.608Z,5.30
2017-11-28T06:30:16.940Z,5.30
2017-11-28T06:32:43.979Z,5.30
2017-11-28T06:35:10.332Z,5.30
2017-11-28T06:37:38.413Z,5.30
2017-11-28T06:40:04.757Z,5.30
2017-11-28T06:42:31.121Z,5.30
2017-11-28T06:44:57.447Z,5.30
2017-11-28T06:47:25.645Z,5.30
2017-11-28T06:49:52.689Z,5.30
2017-11-28T06:52:19.865Z,5.40
2017-11-28T06:54:46.163Z,5.40
2017-11-28T06:57:12.483Z,5.30
2017-11-28T06:59:38.793Z,5.40
2017-11-28T07:02:05.964Z,5.40
2017-11-28T07:04:32.273Z,5.40
2017-11-28T07:06:59.348Z,5.40
2017-11-28T07:09:26.413Z,5.30
2017-11-28T07:11:53.466Z,5.40
2017-11-28T07:14:19.800Z,5.40
2017-11-28T07:16:46.113Z,5.50
2017-11-28T07:19:12.429Z,5.40
2017-11-28T07:21:38.828Z,5.40
2017-11-28T07:24:05.121Z,5.50
2017-11-28T07:26:32.166Z,5.50
2017-11-28T07:28:58.500Z,5.40
2017-11-28T07:31:24.812Z,5.40
2017-11-28T07:33:51.121Z,5.50
2017-11-28T07:36:17.464Z,5.50
2017-11-28T07:38:43.786Z,5.40
2017-11-28T07:41:10.840Z,5.40
2017-11-28T07:43:37.181Z,5.40
2017-11-28T07:46:04.224Z,5.40
2017-11-28T07:48:30.526Z,5.40
2017-11-28T07:50:57.608Z,5.30
2017-11-28T07:53:23.929Z,5.40
2017-11-28T07:55:50.247Z,5.40
2017-11-28T07:58:16.573Z,5.40
2017-11-28T08:00:43.613Z,5.50
2017-11-28T08:03:09.928Z,5.40
2017-11-28T08:05:36.240Z,5.50
2017-11-28T08:08:02.597Z,5.50
2017-11-28T08:10:28.945Z,5.50
2017-11-28T08:12:55.268Z,5.50
2017-11-28T08:15:21.609Z,5.50
2017-11-28T08:17:47.921Z,5.50
2017-11-28T08:20:14.290Z,5.50
2017-11-28T08:22:40.633Z,5.50
2017-11-28T08:25:08.054Z,5.50
2017-11-28T08:27:35.183Z,5.50
2017-11-28T08:30:01.549Z,5.50
2017-11-28T08:32:27.913Z,5.40
2017-11-28T08:34:55.063Z,5.40
2017-11-28T08:37:21.392Z,5.40
2017-11-28T08:39:47.736Z,5.30
2017-11-28T08:42:15.134Z,5.30
2017-11-28T08:44:42.205Z,5.30
2017-11-28T08:47:09.306Z,5.30
2017-11-28T08:49:35.660Z,5.30
2017-11-28T08:52:01.981Z,5.40
2017-11-28T08:54:28.313Z,5.30
2017-11-28T08:56:54.637Z,5.40
2017-11-28T08:59:21.681Z,5.40
2017-11-28T09:01:48.023Z,5.40
2017-11-28T09:04:14.355Z,5.40
2017-11-28T09:06:40.656Z,5.40
2017-11-28T09:09:08.069Z,5.40
2017-11-28T09:11:34.413Z,5.40
2017-11-28T09:14:01.722Z,5.40
2017-11-28T09:16:28.061Z,5.40
2017-11-28T09:18:54.373Z,5.50
2017-11-28T09:21:21.429Z,5.40
2017-11-28T09:23:48.478Z,5.50
2017-11-28T09:26:15.572Z,5.50
2017-11-28T09:28:41.901Z,5.50
2017-11-28T09:31:08.938Z,5.40
2017-11-28T09:33:36.021Z,5.40
2017-11-28T09:36:04.165Z,5.50
2017-11-28T09:38:30.475Z,5.50
2017-11-28T09:40:56.808Z,5.40
2017-11-28T09:43:23.144Z,5.30
2017-11-28T09:45:49.460Z,5.30
2017-11-28T09:48:15.788Z,5.30
2017-11-28T09:50:42.113Z,5.30
2017-11-28T09:53:08.456Z,5.30
2017-11-28T09:55:34.789Z,5.30
2017-11-28T09:58:01.105Z,5.30
2017-11-28T10:00:27.437Z,5.40
2017-11-28T10:02:53.760Z,5.50
2017-11-28T10:05:20.105Z,5.40
2017-11-28T10:07:47.163Z,5.50
2017-11-28T10:10:13.550Z,5.50
2017-11-28T10:12:40.628Z,5.50
2017-11-28T10:15:06.949Z,5.50
2017-11-28T10:17:33.325Z,5.60
2017-11-28T10:19:59.640Z,5.60
2017-11-28T10:22:25.977Z,5.60
2017-11-28T10:24:52.333Z,5.70
2017-11-28T10:27:18.633Z,5.70
2017-11-28T10:29:44.991Z,5.70
2017-11-28T10:32:11.462Z,5.80
2017-11-28T10:34:37.857Z,5.90
2017-11-28T10:37:04.309Z,5.90
2017-11-28T10:39:30.725Z,6.00
2017-11-28T10:41:57.870Z,6.20
2017-11-28T10:44:24.265Z,6.20
2017-11-28T10:46:50.725Z,6.20
2017-11-28T10:49:17.118Z,6.20
2017-11-28T10:51:44.245Z,6.10
2017-11-28T10:54:10.726Z,6.00
2017-11-28T10:56:37.861Z,6.80
2017-11-28T10:59:04.355Z,6.80
2017-11-28T11:01:30.752Z,6.80
2017-11-28T11:03:57.145Z,6.70
2017-11-28T11:06:23.598Z,6.80
2017-11-28T11:08:50.054Z,6.80
2017-11-28T11:11:16.494Z,6.80
2017-11-28T11:13:42.966Z,6.80
2017-11-28T11:16:10.169Z,6.70
2017-11-28T11:18:37.365Z,6.70
2017-11-28T11:21:03.766Z,6.70
2017-11-28T11:23:30.230Z,6.60
2017-11-28T11:25:56.681Z,6.70
2017-11-28T11:28:23.153Z,6.70
2017-11-28T11:30:49.604Z,6.70
2017-11-28T11:33:16.789Z,6.80
2017-11-28T11:35:43.225Z,6.80
2017-11-28T11:38:10.405Z,6.80
2017-11-28T11:40:37.597Z,6.70
2017-11-28T11:43:04.770Z,6.70
2017-11-28T11:45:31.197Z,6.70
2017-11-28T11:47:57.630Z,6.60
2017-11-28T11:50:24.807Z,6.60
2017-11-28T11:52:51.263Z,6.50
2017-11-28T11:55:17.689Z,6.50
2017-11-28T11:57:44.850Z,6.40
2017-11-28T12:00:11.293Z,6.40
2017-11-28T12:02:38.485Z,6.50
2017-11-28T12:05:04.913Z,6.50
2017-11-28T12:07:31.365Z,6.60
2017-11-28T12:09:58.805Z,6.80
2017-11-28T12:12:25.985Z,6.80
2017-11-28T12:14:52.482Z,6.80
2017-11-28T12:17:18.915Z,6.90
2017-11-28T12:19:45.345Z,7.00
2017-11-28T12:22:11.778Z,7.10
2017-11-28T12:24:38.218Z,7.00
2017-11-28T12:27:04.674Z,7.10
2017-11-28T12:29:31.097Z,7.10
2017-11-28T12:31:58.282Z,7.00
2017-11-28T12:34:24.709Z,7.00
2017-11-28T12:36:51.149Z,6.90
2017-11-28T12:39:17.559Z,6.90
2017-11-28T12:41:43.997Z,6.80
2017-11-28T12:44:10.454Z,6.70
2017-11-28T12:46:36.845Z,6.70
2017-11-28T12:49:03.298Z,6.60
2017-11-28T12:51:29.789Z,6.60
2017-11-28T12:53:56.205Z,6.60
2017-11-28T12:56:22.678Z,6.50
2017-11-28T12:58:49.884Z,6.30
2017-11-28T13:01:17.003Z,6.30
2017-11-28T13:03:43.487Z,6.30
2017-11-28T13:06:09.954Z,6.30
2017-11-28T13:08:36.405Z,6.30
2017-11-28T13:11:02.830Z,6.30
2017-11-28T13:13:29.225Z,6.20
2017-11-28T13:15:55.618Z,6.20
2017-11-28T13:18:22.017Z,6.10
2017-11-28T13:20:49.189Z,6.00
2017-11-28T13:23:16.414Z,5.90
2017-11-28T13:25:42.867Z,5.90
2017-11-28T13:28:09.306Z,5.90
2017-11-28T13:30:36.662Z,5.80
2017-11-28T13:33:03.082Z,5.80
2017-11-28T13:35:30.516Z,5.90
2017-11-28T13:37:56.919Z,6.00
2017-11-28T13:40:23.331Z,6.00
2017-11-28T13:42:49.781Z,6.20
2017-11-28T13:45:16.182Z,6.20
2017-11-28T13:47:42.677Z,6.30
2017-11-28T13:50:09.132Z,6.40
2017-11-28T13:52:35.525Z,6.50
2017-11-28T13:55:01.991Z,6.50
2017-11-28T13:57:28.473Z,6.40
2017-11-28T13:59:56.017Z,6.40
2017-11-28T14:02:22.452Z,6.40
2017-11-28T14:04:48.877Z,6.40
2017-11-28T14:07:15.305Z,6.30
2017-11-28T14:09:41.789Z,6.30
2017-11-28T14:12:08.246Z,6.20
2017-11-28T14:14:34.722Z,6.10
2017-11-28T14:17:01.175Z,6.00
2017-11-28T14:19:28.550Z,6.00
2017-11-28T14:22:13.896Z,5.90
2017-11-28T14:24:46.334Z,5.90
2017-11-28T14:27:15.786Z,5.80
2017-11-28T14:32:48.020Z,6.00
2017-11-28T14:35:20.576Z,6.00
2017-11-28T14:37:46.947Z,6.10
2017-11-28T14:40:14.055Z,6.10
2017-11-28T14:45:44.873Z,5.90
2017-11-28T14:48:11.985Z,5.80
2017-11-28T14:50:42.216Z,5.80
2017-11-28T14:53:08.576Z,5.70
2017-11-28T14:55:37.965Z,5.70
2017-11-28T14:58:06.115Z,5.70
2017-11-28T15:00:38.445Z,5.50
2017-11-28T15:03:11.000Z,5.60
2017-11-28T15:05:43.314Z,5.50
2017-11-28T15:08:15.682Z,5.50
2017-11-28T15:10:48.251Z,5.50
2017-11-28T15:13:20.857Z,5.40
2017-11-28T15:15:49.356Z,5.30
2017-11-28T15:21:17.669Z,5.10
2017-11-28T15:23:44.020Z,5.00
2017-11-28T15:26:21.305Z,4.90
2017-11-28T15:28:56.609Z,4.90
2017-11-28T15:31:22.973Z,4.90
2017-11-28T15:33:50.078Z,4.70
2017-11-28T15:36:16.384Z,4.60
2017-11-28T15:38:42.715Z,4.60
2017-11-28T15:41:10.875Z,4.50
2017-11-28T15:43:37.192Z,4.50
2017-11-28T15:46:03.532Z,4.40
2017-11-28T15:48:29.927Z,4.40
2017-11-28T15:50:56.268Z,4.30
2017-11-28T15:53:22.572Z,4.20
2017-11-28T15:55:48.917Z,4.10
2017-11-28T15:58:15.277Z,4.10
2017-11-28T16:00:41.686Z,4.10
2017-11-28T16:03:08.182Z,4.00
2017-11-28T16:05:35.382Z,3.90
2017-11-28T16:08:01.854Z,3.90
2017-11-28T16:10:28.309Z,3.90
2017-11-28T16:12:54.749Z,3.80
2017-11-28T16:15:21.233Z,3.90
2017-11-28T16:17:47.637Z,3.80
2017-11-28T16:20:14.086Z,3.70
2017-11-28T16:22:40.545Z,3.70
2017-11-28T16:25:07.774Z,3.70
2017-11-28T16:27:34.185Z,3.70
2017-11-28T16:30:00.631Z,3.70
2017-11-28T16:32:27.078Z,3.70
2017-11-28T16:34:54.236Z,3.60
2017-11-28T16:37:22.458Z,3.60
2017-11-28T16:39:49.653Z,3.60
2017-11-28T16:42:16.057Z,3.50
2017-11-28T16:44:42.477Z,3.50
2017-11-28T16:47:08.908Z,3.50
2017-11-28T16:49:35.367Z,3.50
2017-11-28T16:52:02.570Z,3.50
2017-11-28T16:54:29.019Z,3.50
2017-11-28T16:56:55.472Z,3.40
2017-11-28T16:59:21.897Z,3.30
2017-11-28T17:01:48.413Z,3.30
2017-11-28T17:04:14.871Z,3.30
2017-11-28T17:06:41.353Z,3.30
2017-11-28T17:09:07.870Z,3.30
2017-11-28T17:11:34.314Z,3.30
2017-11-28T17:14:00.785Z,3.30
2017-11-28T17:16:27.241Z,3.10
2017-11-28T17:18:54.762Z,3.10
2017-11-28T17:21:21.197Z,3.20
2017-11-28T17:23:47.662Z,3.00
2017-11-28T17:26:14.137Z,2.90
2017-11-28T17:28:40.606Z,2.80
2017-11-28T17:31:07.041Z,2.80
2017-11-28T17:33:33.483Z,2.80
2017-11-28T17:35:59.929Z,2.80
2017-11-28T17:38:26.381Z,2.50
2017-11-28T17:40:52.839Z,2.50
2017-11-28T17:43:20.105Z,2.20
2017-11-28T17:45:47.250Z,2.20
2017-11-28T17:48:13.660Z,2.20
2017-11-28T17:50:40.102Z,2.30
2017-11-28T17:53:06.566Z,2.20
2017-11-28T17:55:33.044Z,2.10
2017-11-28T17:57:59.512Z,2.00
2017-11-28T18:00:26.004Z,2.00
2017-11-28T18:02:53.277Z,1.90
2017-11-28T18:05:19.689Z,1.90
2017-11-28T18:07:46.162Z,1.90
2017-11-28T18:10:12.609Z,1.80
2017-11-28T18:12:40.065Z,1.70
2017-11-28T18:15:06.613Z,1.70
2017-11-28T18:17:33.066Z,1.60
2017-11-28T18:19:59.494Z,1.60
2017-11-28T18:22:25.967Z,1.50
2017-11-28T18:24:52.428Z,1.50
2017-11-28T18:27:18.837Z,1.40
2017-11-28T18:29:45.310Z,1.40
2017-11-28T18:32:11.829Z,1.30
2017-11-28T18:34:38.267Z,1.20
2017-11-28T18:37:04.725Z,1.30
2017-11-28T18:39:31.166Z,1.20
2017-11-28T18:41:57.649Z,1.30
2017-11-28T18:44:24.824Z,1.30
2017-11-28T18:46:51.245Z,1.30
2017-11-28T18:49:17.649Z,1.20
2017-11-28T18:51:44.085Z,1.10
2017-11-28T18:54:10.506Z,1.20
2017-11-28T18:56:38.565Z,1.00
2017-11-28T18:59:05.045Z,0.90
2017-11-28T19:01:32.202Z,1.00
2017-11-28T19:03:59.354Z,1.00
2017-11-28T19:06:25.814Z,1.00
2017-11-28T19:08:53.165Z,0.80
2017-11-28T19:11:19.640Z,0.80
2017-11-28T19:13:46.102Z,0.80
2017-11-28T19:16:12.478Z,0.90
2017-11-28T19:18:38.890Z,1.00
2017-11-28T19:21:05.344Z,1.00
2017-11-28T19:23:32.056Z,1.00
2017-11-28T19:25:58.557Z,1.00
2017-11-28T19:28:25.835Z,0.90
2017-11-28T19:30:52.325Z,0.90
2017-11-28T19:33:18.745Z,0.80
2017-11-28T19:35:45.265Z,0.80
2017-11-28T19:38:11.717Z,0.90
2017-11-28T19:40:38.157Z,0.90
2017-11-28T19:43:05.336Z,0.90
2017-11-28T19:45:31.757Z,0.90
2017-11-28T19:47:58.145Z,1.00
2017-11-28T19:50:24.584Z,1.00
2017-11-28T19:52:51.739Z,1.10
2017-11-28T19:55:18.909Z,1.10
2017-11-28T19:57:45.377Z,1.10
2017-11-28T20:00:11.925Z,1.30
2017-11-28T20:02:38.337Z,1.30
2017-11-28T20:05:04.822Z,1.30
2017-11-28T20:07:32.035Z,1.50
2017-11-28T20:09:59.207Z,1.50
2017-11-28T20:12:25.661Z,1.50
2017-11-28T20:14:52.826Z,1.60
2017-11-28T20:17:19.287Z,1.60
2017-11-28T20:19:45.732Z,1.50
2017-11-28T20:22:12.205Z,1.60
2017-11-28T20:24:38.687Z,1.70
2017-11-28T20:27:05.183Z,1.70
2017-11-28T20:29:31.602Z,1.70
2017-11-28T20:31:58.063Z,1.70
2017-11-28T20:34:24.478Z,1.70
2017-11-28T20:36:51.651Z,1.70
2017-11-28T20:39:18.102Z,1.70
2017-11-28T20:41:44.529Z,1.70
2017-11-28T20:44:11.722Z,1.80
2017-11-28T20:46:38.240Z,1.80
2017-11-28T20:49:10.701Z,1.80
2017-11-28T20:51:37.202Z,1.90
2017-11-28T20:54:03.657Z,1.80
2017-11-28T20:56:30.148Z,1.90
2017-11-28T20:58:57.321Z,2.00
2017-11-28T21:01:23.733Z,2.00
2017-11-28T21:03:50.221Z,2.00
2017-11-28T21:06:17.417Z,1.90
2017-11-28T21:08:43.825Z,1.90
2017-11-28T21:11:10.289Z,1.80
2017-11-28T21:13:36.742Z,1.60
2017-11-28T21:16:03.141Z,1.60
2017-11-28T21:18:29.625Z,1.60
2017-11-28T21:20:56.017Z,1.70
2017-11-28T21:23:22.444Z,1.90
2017-11-28T21:25:48.897Z,1.80
2017-11-28T21:28:16.425Z,1.90
2017-11-28T21:30:42.966Z,2.00
2017-11-28T21:33:09.448Z,2.00
2017-11-28T21:35:35.889Z,2.00
2017-11-28T21:38:02.361Z,2.10
2017-11-28T21:40:28.842Z,2.10
2017-11-28T21:42:56.013Z,2.10
2017-11-28T21:45:22.472Z,2.10
2017-11-28T21:47:48.929Z,2.10
2017-11-28T21:50:15.341Z,2.10
2017-11-28T21:52:42.538Z,2.30
2017-11-28T21:55:08.998Z,2.30
2017-11-28T21:57:35.413Z,2.30
2017-11-28T22:00:01.890Z,2.30
2017-11-28T22:02:28.301Z,2.20
2017-11-28T22:04:54.762Z,2.30
2017-11-28T22:07:21.203Z,2.20
2017-11-28T22:09:47.645Z,2.20
2017-11-28T22:12:14.103Z,2.20
2017-11-28T22:14:40.567Z,2.20
2017-11-28T22:17:07.742Z,2.30
2017-11-28T22:19:34.163Z,2.30
2017-11-28T22:22:00.594Z,2.40
2017-11-28T22:24:27.002Z,2.40
2017-11-28T22:26:54.185Z,2.50
2017-11-28T22:29:20.634Z,2.40
2017-11-28T22:31:47.097Z,2.70
2017-11-28T22:34:13.542Z,2.60
2017-11-28T22:36:39.966Z,2.50
2017-11-28T22:39:06.431Z,2.50
2017-11-28T22:41:32.882Z,2.50
2017-11-28T22:43:59.337Z,2.40
2017-11-28T22:46:25.797Z,2.40
2017-11-28T22:48:53.262Z,2.40
2017-11-28T22:51:19.685Z,2.30
2017-11-28T22:53:46.138Z,2.30
2017-11-28T22:56:12.558Z,2.40
2017-11-28T22:58:39.033Z,2.40
2017-11-28T23:01:05.473Z,2.40
2017-11-28T23:03:31.914Z,2.50
2017-11-28T23:05:58.307Z,2.40
2017-11-28T23:08:24.693Z,2.20
2017-11-28T23:10:51.404Z,2.20
2017-11-28T23:13:17.845Z,2.10
2017-11-28T23:15:44.311Z,2.00
2017-11-28T23:18:10.773Z,2.00
2017-11-28T23:20:37.210Z,2.00
2017-11-28T23:23:03.650Z,1.90
2017-11-28T23:25:30.033Z,1.80
2017-11-28T23:27:56.486Z,1.80
2017-11-28T23:30:23.184Z,1.90
2017-11-28T23:32:49.672Z,1.90
2017-11-28T23:35:16.142Z,1.80
2017-11-28T23:37:43.345Z,1.80
2017-11-28T23:40:09.847Z,1.80
2017-11-28T23:42:37.087Z,1.80
2017-11-28T23:45:03.653Z,1.90
2017-11-28T23:47:30.409Z,1.80
2017-11-28T23:49:57.869Z,1.90
2017-11-28T23:52:24.347Z,1.90
2017-11-28T23:54:51.541Z,1.90
2017-11-28T23:57:17.973Z,1.90
2017-11-28T23:59:44.508Z,1.90
